sensor_id;sensor_type;location;lat;lon;timestamp;P1;durP1;ratioP1;P2;durP2;ratioP2
19727;SDS011;10015;52.530;13.390;2022-10-31T05:18:00;20.13;;;8.93;;
19727;SDS011;10015;52.530;13.390;2022-10-31T05:20:29;18.07;;;9.27;;
19727;SDS011;10015;52.530;13.390;2022-10-31T05:23:01;15.50;;;8.93;;
19727;SDS011;10015;52.530;13.390;2022-10-31T05:25:28;21.63;;;10.30;;
19727;SDS011;10015;52.530;13.390;2022-10-31T05:27:55;19.13;;;9.70;;
19727;SDS011;10015;52.530;13.390;2022-10-31T05:30:23;19.50;;;9.37;;
19727;SDS011;10015;52.530;13.390;2022-10-31T05:32:54;17.10;;;9.23;;
19727;SDS011;10015;52.530;13.390;2022-10-31T05:35:38;15.37;;;9.30;;
19727;SDS011;10015;52.530;13.390;2022-10-31T05:38:37;17.00;;;9.23;;
19727;SDS011;10015;52.530;13.390;2022-10-31T05:41:12;17.93;;;9.47;;
19727;SDS011;10015;52.530;13.390;2022-10-31T05:43:42;22.93;;;9.97;;
19727;SDS011;10015;52.530;13.390;2022-10-31T05:46:09;24.90;;;10.43;;
19727;SDS011;10015;52.530;13.390;2022-10-31T05:48:55;23.17;;;9.83;;
19727;SDS011;10015;52.530;13.390;2022-10-31T05:51:39;18.13;;;9.43;;
19727;SDS011;10015;52.530;13.390;2022-10-31T05:54:07;18.17;;;9.23;;
19727;SDS011;10015;52.530;13.390;2022-10-31T05:56:35;21.37;;;10.10;;
19727;SDS011;10015;52.530;13.390;2022-10-31T05:59:01;23.23;;;9.70;;
19727;SDS011;10015;52.530;13.390;2022-10-31T06:01:27;15.47;;;9.67;;
19727;SDS011;10015;52.530;13.390;2022-10-31T06:03:53;16.87;;;8.80;;
19727;SDS011;10015;52.530;13.390;2022-10-31T06:06:21;17.93;;;9.40;;
19727;SDS011;10015;52.530;13.390;2022-10-31T06:08:47;20.20;;;8.67;;
19727;SDS011;10015;52.530;13.390;2022-10-31T06:11:17;16.43;;;9.50;;
19727;SDS011;10015;52.530;13.390;2022-10-31T06:14:18;22.40;;;10.17;;
19727;SDS011;10015;52.530;13.390;2022-10-31T06:16:52;24.07;;;10.13;;
19727;SDS011;10015;52.530;13.390;2022-10-31T06:19:42;17.77;;;10.00;;
19727;SDS011;10015;52.530;13.390;2022-10-31T06:22:10;18.27;;;9.77;;
19727;SDS011;10015;52.530;13.390;2022-10-31T06:24:37;21.73;;;10.20;;
19727;SDS011;10015;52.530;13.390;2022-10-31T06:27:16;19.13;;;9.97;;
19727;SDS011;10015;52.530;13.390;2022-10-31T06:29:42;18.03;;;9.80;;
19727;SDS011;10015;52.530;13.390;2022-10-31T06:32:13;19.47;;;10.07;;
19727;SDS011;10015;52.530;13.390;2022-10-31T06:34:43;21.13;;;10.50;;
19727;SDS011;10015;52.530;13.390;2022-10-31T06:37:10;16.97;;;10.07;;
19727;SDS011;10015;52.530;13.390;2022-10-31T06:39:39;21.23;;;10.00;;
19727;SDS011;10015;52.530;13.390;2022-10-31T06:42:08;21.53;;;12.00;;
19727;SDS011;10015;52.530;13.390;2022-10-31T06:44:34;22.73;;;11.43;;
19727;SDS011;10015;52.530;13.390;2022-10-31T06:47:18;27.17;;;11.83;;
19727;SDS011;10015;52.530;13.390;2022-10-31T06:50:02;29.00;;;11.50;;
19727;SDS011;10015;52.530;13.390;2022-10-31T06:52:28;29.70;;;11.30;;
19727;SDS011;10015;52.530;13.390;2022-10-31T06:54:54;21.23;;;11.47;;
19727;SDS011;10015;52.530;13.390;2022-10-31T06:57:22;19.33;;;10.27;;
19727;SDS011;10015;52.530;13.390;2022-10-31T06:59:48;17.70;;;8.77;;
19727;SDS011;10015;52.530;13.390;2022-10-31T07:02:40;18.87;;;9.67;;
19727;SDS011;10015;52.530;13.390;2022-10-31T07:05:06;19.57;;;9.37;;
19727;SDS011;10015;52.530;13.390;2022-10-31T07:07:32;18.33;;;10.17;;
19727;SDS011;10015;52.530;13.390;2022-10-31T07:09:58;17.43;;;9.50;;
19727;SDS011;10015;52.530;13.390;2022-10-31T07:12:40;23.53;;;10.60;;
19727;SDS011;10015;52.530;13.390;2022-10-31T07:15:07;22.03;;;10.83;;
19727;SDS011;10015;52.530;13.390;2022-10-31T07:17:33;25.47;;;10.60;;
19727;SDS011;10015;52.530;13.390;2022-10-31T07:20:00;22.70;;;11.20;;
19727;SDS011;10015;52.530;13.390;2022-10-31T07:22:32;22.43;;;11.03;;
19727;SDS011;10015;52.530;13.390;2022-10-31T07:24:59;26.53;;;11.30;;
19727;SDS011;10015;52.530;13.390;2022-10-31T07:28:00;26.20;;;11.17;;
19727;SDS011;10015;52.530;13.390;2022-10-31T07:30:26;26.87;;;11.87;;
19727;SDS011;10015;52.530;13.390;2022-10-31T07:32:54;27.43;;;12.73;;
19727;SDS011;10015;52.530;13.390;2022-10-31T07:35:21;25.07;;;11.43;;
19727;SDS011;10015;52.530;13.390;2022-10-31T07:37:56;28.87;;;11.40;;
19727;SDS011;10015;52.530;13.390;2022-10-31T07:40:23;27.83;;;13.27;;
19727;SDS011;10015;52.530;13.390;2022-10-31T07:42:52;21.90;;;11.40;;
19727;SDS011;10015;52.530;13.390;2022-10-31T07:45:38;24.50;;;12.47;;
19727;SDS011;10015;52.530;13.390;2022-10-31T07:48:23;29.13;;;13.37;;
19727;SDS011;10015;52.530;13.390;2022-10-31T07:51:07;28.60;;;13.03;;
19727;SDS011;10015;52.530;13.390;2022-10-31T07:53:52;27.07;;;13.37;;
19727;SDS011;10015;52.530;13.390;2022-10-31T07:56:23;31.43;;;13.17;;
19727;SDS011;10015;52.530;13.390;2022-10-31T07:58:49;31.23;;;12.80;;
19727;SDS011;10015;52.530;13.390;2022-10-31T08:01:15;28.13;;;12.93;;
19727;SDS011;10015;52.530;13.390;2022-10-31T08:03:50;31.50;;;13.10;;
19727;SDS011;10015;52.530;13.390;2022-10-31T08:06:36;28.37;;;12.30;;
19727;SDS011;10015;52.530;13.390;2022-10-31T08:09:02;28.20;;;13.30;;
19727;SDS011;10015;52.530;13.390;2022-10-31T08:11:30;29.87;;;12.47;;
19727;SDS011;10015;52.530;13.390;2022-10-31T08:13:57;30.90;;;12.70;;
19727;SDS011;10015;52.530;13.390;2022-10-31T08:16:23;36.33;;;14.07;;
19727;SDS011;10015;52.530;13.390;2022-10-31T08:18:56;27.37;;;13.37;;
19727;SDS011;10015;52.530;13.390;2022-10-31T08:21:22;29.20;;;13.63;;
19727;SDS011;10015;52.530;13.390;2022-10-31T08:23:48;22.83;;;10.50;;
19727;SDS011;10015;52.530;13.390;2022-10-31T08:26:14;25.03;;;10.83;;
19727;SDS011;10015;52.530;13.390;2022-10-31T08:28:41;18.00;;;9.90;;
19727;SDS011;10015;52.530;13.390;2022-10-31T08:31:08;19.60;;;10.60;;
19727;SDS011;10015;52.530;13.390;2022-10-31T08:33:38;21.13;;;9.90;;
19727;SDS011;10015;52.530;13.390;2022-10-31T08:36:22;28.03;;;13.40;;
19727;SDS011;10015;52.530;13.390;2022-10-31T08:38:58;26.57;;;13.40;;
19727;SDS011;10015;52.530;13.390;2022-10-31T08:41:24;27.53;;;13.37;;
19727;SDS011;10015;52.530;13.390;2022-10-31T08:43:51;34.37;;;15.73;;
19727;SDS011;10015;52.530;13.390;2022-10-31T08:46:17;30.30;;;14.73;;
19727;SDS011;10015;52.530;13.390;2022-10-31T08:48:52;24.63;;;14.80;;
19727;SDS011;10015;52.530;13.390;2022-10-31T08:51:19;31.57;;;14.80;;
19727;SDS011;10015;52.530;13.390;2022-10-31T08:53:48;33.47;;;14.07;;
19727;SDS011;10015;52.530;13.390;2022-10-31T08:56:33;32.20;;;14.13;;
19727;SDS011;10015;52.530;13.390;2022-10-31T08:59:01;30.43;;;15.17;;
19727;SDS011;10015;52.530;13.390;2022-10-31T09:01:41;27.53;;;13.90;;
19727;SDS011;10015;52.530;13.390;2022-10-31T09:04:07;25.70;;;13.63;;
19727;SDS011;10015;52.530;13.390;2022-10-31T09:06:32;25.97;;;13.47;;
19727;SDS011;10015;52.530;13.390;2022-10-31T09:08:59;23.73;;;12.87;;
19727;SDS011;10015;52.530;13.390;2022-10-31T09:11:25;28.27;;;13.93;;
19727;SDS011;10015;52.530;13.390;2022-10-31T09:14:19;26.10;;;13.03;;
19727;SDS011;10015;52.530;13.390;2022-10-31T09:17:09;25.23;;;12.33;;
19727;SDS011;10015;52.530;13.390;2022-10-31T09:19:52;33.47;;;15.00;;
19727;SDS011;10015;52.530;13.390;2022-10-31T09:22:18;28.93;;;13.30;;
19727;SDS011;10015;52.530;13.390;2022-10-31T09:24:44;23.43;;;13.27;;
19727;SDS011;10015;52.530;13.390;2022-10-31T09:27:10;25.37;;;14.33;;
19727;SDS011;10015;52.530;13.390;2022-10-31T09:29:39;24.93;;;14.90;;
19727;SDS011;10015;52.530;13.390;2022-10-31T09:32:07;30.27;;;15.10;;
19727;SDS011;10015;52.530;13.390;2022-10-31T09:34:39;31.27;;;16.67;;
19727;SDS011;10015;52.530;13.390;2022-10-31T09:37:10;35.90;;;17.57;;
19727;SDS011;10015;52.530;13.390;2022-10-31T09:39:36;36.73;;;18.90;;
19727;SDS011;10015;52.530;13.390;2022-10-31T09:42:38;37.90;;;19.10;;
19727;SDS011;10015;52.530;13.390;2022-10-31T09:45:39;40.00;;;19.47;;
19727;SDS011;10015;52.530;13.390;2022-10-31T09:51:16;38.37;;;19.43;;
19727;SDS011;10015;52.530;13.390;2022-10-31T09:54:24;37.47;;;18.97;;
19727;SDS011;10015;52.530;13.390;2022-10-31T09:57:15;39.47;;;19.50;;
19727;SDS011;10015;52.530;13.390;2022-10-31T09:59:47;37.27;;;19.10;;
19727;SDS011;10015;52.530;13.390;2022-10-31T10:02:22;36.50;;;17.67;;
19727;SDS011;10015;52.530;13.390;2022-10-31T10:05:33;43.93;;;18.33;;
19727;SDS011;10015;52.530;13.390;2022-10-31T10:28:02;43.63;;;22.63;;
19727;SDS011;10015;52.530;13.390;2022-10-31T10:36:17;42.83;;;21.10;;
19727;SDS011;10015;52.530;13.390;2022-10-31T10:38:57;48.83;;;23.27;;
19727;SDS011;10015;52.530;13.390;2022-10-31T10:41:28;39.17;;;21.00;;
19727;SDS011;10015;52.530;13.390;2022-10-31T10:43:57;42.93;;;19.23;;
19727;SDS011;10015;52.530;13.390;2022-10-31T10:49:55;41.63;;;20.37;;
19727;SDS011;10015;52.530;13.390;2022-10-31T10:55:15;38.67;;;18.57;;
19727;SDS011;10015;52.530;13.390;2022-10-31T10:57:58;38.57;;;19.20;;
19727;SDS011;10015;52.530;13.390;2022-10-31T11:00:40;31.10;;;17.13;;
19727;SDS011;10015;52.530;13.390;2022-10-31T11:03:09;37.70;;;17.97;;
19727;SDS011;10015;52.530;13.390;2022-10-31T11:05:39;41.87;;;20.90;;
19727;SDS011;10015;52.530;13.390;2022-10-31T11:13:41;40.37;;;19.83;;
19727;SDS011;10015;52.530;13.390;2022-10-31T11:16:10;36.97;;;19.20;;
19727;SDS011;10015;52.530;13.390;2022-10-31T11:18:42;38.70;;;19.90;;
19727;SDS011;10015;52.530;13.390;2022-10-31T11:21:21;38.00;;;20.50;;
19727;SDS011;10015;52.530;13.390;2022-10-31T11:26:35;41.00;;;21.93;;
19727;SDS011;10015;52.530;13.390;2022-10-31T11:29:03;42.73;;;23.00;;
19727;SDS011;10015;52.530;13.390;2022-10-31T11:31:31;49.57;;;24.93;;
19727;SDS011;10015;52.530;13.390;2022-10-31T11:34:03;47.30;;;24.73;;
19727;SDS011;10015;52.530;13.390;2022-10-31T11:36:36;50.03;;;24.47;;
19727;SDS011;10015;52.530;13.390;2022-10-31T11:39:04;44.87;;;21.00;;
19727;SDS011;10015;52.530;13.390;2022-10-31T11:41:39;39.57;;;21.03;;
19727;SDS011;10015;52.530;13.390;2022-10-31T11:44:12;45.47;;;22.07;;
19727;SDS011;10015;52.530;13.390;2022-10-31T11:46:39;41.53;;;21.13;;
19727;SDS011;10015;52.530;13.390;2022-10-31T11:49:14;39.93;;;19.43;;
19727;SDS011;10015;52.530;13.390;2022-10-31T11:51:46;38.40;;;19.60;;
19727;SDS011;10015;52.530;13.390;2022-10-31T11:54:18;35.90;;;18.77;;
19727;SDS011;10015;52.530;13.390;2022-10-31T11:56:56;40.50;;;19.57;;
19727;SDS011;10015;52.530;13.390;2022-10-31T11:59:27;37.97;;;18.20;;
19727;SDS011;10015;52.530;13.390;2022-10-31T12:01:56;37.33;;;19.03;;
19727;SDS011;10015;52.530;13.390;2022-10-31T12:04:46;35.70;;;17.13;;
19727;SDS011;10015;52.530;13.390;2022-10-31T12:07:22;37.83;;;19.13;;
19727;SDS011;10015;52.530;13.390;2022-10-31T12:09:49;39.43;;;21.70;;
19727;SDS011;10015;52.530;13.390;2022-10-31T12:18:03;43.37;;;22.20;;
19727;SDS011;10015;52.530;13.390;2022-10-31T12:20:50;39.63;;;20.60;;
19727;SDS011;10015;52.530;13.390;2022-10-31T12:26:35;30.87;;;16.87;;
19727;SDS011;10015;52.530;13.390;2022-10-31T12:29:14;32.13;;;18.20;;
19727;SDS011;10015;52.530;13.390;2022-10-31T12:32:04;37.63;;;17.70;;
19727;SDS011;10015;52.530;13.390;2022-10-31T12:45:44;35.90;;;17.67;;
19727;SDS011;10015;52.530;13.390;2022-10-31T12:51:20;31.10;;;16.23;;
19727;SDS011;10015;52.530;13.390;2022-10-31T13:02:42;33.30;;;16.20;;
19727;SDS011;10015;52.530;13.390;2022-10-31T13:05:02;31.07;;;17.13;;
19727;SDS011;10015;52.530;13.390;2022-10-31T13:07:43;32.13;;;16.47;;
19727;SDS011;10015;52.530;13.390;2022-10-31T13:16:37;37.37;;;17.77;;
19727;SDS011;10015;52.530;13.390;2022-10-31T13:30:20;31.97;;;16.10;;
19727;SDS011;10015;52.530;13.390;2022-10-31T13:32:52;37.67;;;16.93;;
19727;SDS011;10015;52.530;13.390;2022-10-31T13:35:41;40.03;;;16.50;;
19727;SDS011;10015;52.530;13.390;2022-10-31T13:38:24;32.73;;;16.20;;
19727;SDS011;10015;52.530;13.390;2022-10-31T13:41:01;34.70;;;17.67;;
19727;SDS011;10015;52.530;13.390;2022-10-31T13:46:24;33.17;;;18.77;;
19727;SDS011;10015;52.530;13.390;2022-10-31T13:48:59;34.93;;;18.13;;
19727;SDS011;10015;52.530;13.390;2022-10-31T13:51:26;37.40;;;18.67;;
19727;SDS011;10015;52.530;13.390;2022-10-31T13:56:29;41.03;;;18.57;;
19727;SDS011;10015;52.530;13.390;2022-10-31T14:01:26;39.60;;;19.20;;
19727;SDS011;10015;52.530;13.390;2022-10-31T14:03:59;32.43;;;17.43;;
19727;SDS011;10015;52.530;13.390;2022-10-31T14:06:34;32.90;;;17.43;;
19727;SDS011;10015;52.530;13.390;2022-10-31T14:09:04;34.93;;;17.67;;
19727;SDS011;10015;52.530;13.390;2022-10-31T14:11:31;39.83;;;19.73;;
19727;SDS011;10015;52.530;13.390;2022-10-31T14:13:58;41.03;;;20.90;;
19727;SDS011;10015;52.530;13.390;2022-10-31T14:16:26;44.17;;;21.07;;
19727;SDS011;10015;52.530;13.390;2022-10-31T14:18:59;46.03;;;22.07;;
19727;SDS011;10015;52.530;13.390;2022-10-31T14:21:35;50.47;;;22.97;;
19727;SDS011;10015;52.530;13.390;2022-10-31T14:24:42;59.97;;;23.93;;
19727;SDS011;10015;52.530;13.390;2022-10-31T14:27:47;48.63;;;21.80;;
19727;SDS011;10015;52.530;13.390;2022-10-31T14:29:51;53.03;;;22.17;;
19727;SDS011;10015;52.530;13.390;2022-10-31T14:32:20;50.33;;;23.70;;
19727;SDS011;10015;52.530;13.390;2022-10-31T14:37:20;45.73;;;22.30;;
19727;SDS011;10015;52.530;13.390;2022-10-31T14:51:15;51.67;;;23.97;;
19727;SDS011;10015;52.530;13.390;2022-10-31T14:53:50;46.97;;;22.73;;
19727;SDS011;10015;52.530;13.390;2022-10-31T14:56:26;52.50;;;24.03;;
19727;SDS011;10015;52.530;13.390;2022-10-31T14:58:57;47.63;;;23.77;;
19727;SDS011;10015;52.530;13.390;2022-10-31T15:01:27;51.13;;;24.77;;
19727;SDS011;10015;52.530;13.390;2022-10-31T15:04:18;49.73;;;24.57;;
19727;SDS011;10015;52.530;13.390;2022-10-31T15:06:49;49.23;;;23.77;;
19727;SDS011;10015;52.530;13.390;2022-10-31T15:09:27;45.87;;;23.63;;
19727;SDS011;10015;52.530;13.390;2022-10-31T15:12:16;50.73;;;24.77;;
19727;SDS011;10015;52.530;13.390;2022-10-31T15:14:49;52.10;;;23.90;;
19727;SDS011;10015;52.530;13.390;2022-10-31T15:17:15;53.00;;;24.77;;
19727;SDS011;10015;52.530;13.390;2022-10-31T15:19:42;51.70;;;24.60;;
19727;SDS011;10015;52.530;13.390;2022-10-31T15:22:14;52.80;;;24.77;;
19727;SDS011;10015;52.530;13.390;2022-10-31T15:24:45;56.10;;;25.77;;
19727;SDS011;10015;52.530;13.390;2022-10-31T15:27:17;57.67;;;26.57;;
19727;SDS011;10015;52.530;13.390;2022-10-31T15:29:47;55.63;;;25.63;;
19727;SDS011;10015;52.530;13.390;2022-10-31T15:32:19;55.63;;;25.20;;
19727;SDS011;10015;52.530;13.390;2022-10-31T15:34:48;49.73;;;23.77;;
19727;SDS011;10015;52.530;13.390;2022-10-31T15:37:21;50.00;;;26.13;;
19727;SDS011;10015;52.530;13.390;2022-10-31T15:39:49;57.33;;;25.80;;
19727;SDS011;10015;52.530;13.390;2022-10-31T15:42:29;51.30;;;25.23;;
19727;SDS011;10015;52.530;13.390;2022-10-31T15:47:35;50.57;;;25.07;;
19727;SDS011;10015;52.530;13.390;2022-10-31T15:50:02;53.80;;;25.23;;
19727;SDS011;10015;52.530;13.390;2022-10-31T15:52:41;53.50;;;25.77;;
19727;SDS011;10015;52.530;13.390;2022-10-31T15:57:45;55.37;;;26.37;;
19727;SDS011;10015;52.530;13.390;2022-10-31T16:00:36;51.73;;;25.63;;
19727;SDS011;10015;52.530;13.390;2022-10-31T16:05:51;51.63;;;25.00;;
19727;SDS011;10015;52.530;13.390;2022-10-31T16:08:26;52.57;;;25.20;;
19727;SDS011;10015;52.530;13.390;2022-10-31T16:11:00;51.83;;;25.10;;
19727;SDS011;10015;52.530;13.390;2022-10-31T16:13:40;54.77;;;25.70;;
19727;SDS011;10015;52.530;13.390;2022-10-31T16:16:25;53.80;;;26.00;;
19727;SDS011;10015;52.530;13.390;2022-10-31T16:18:53;58.53;;;27.57;;
19727;SDS011;10015;52.530;13.390;2022-10-31T16:21:28;59.43;;;26.67;;
19727;SDS011;10015;52.530;13.390;2022-10-31T16:23:58;52.50;;;24.87;;
19727;SDS011;10015;52.530;13.390;2022-10-31T16:26:28;51.53;;;25.20;;
19727;SDS011;10015;52.530;13.390;2022-10-31T16:28:56;57.33;;;26.13;;
19727;SDS011;10015;52.530;13.390;2022-10-31T16:31:27;57.13;;;25.07;;
19727;SDS011;10015;52.530;13.390;2022-10-31T16:36:33;56.73;;;25.77;;
19727;SDS011;10015;52.530;13.390;2022-10-31T16:39:04;55.77;;;25.80;;
19727;SDS011;10015;52.530;13.390;2022-10-31T16:41:31;53.43;;;26.17;;
19727;SDS011;10015;52.530;13.390;2022-10-31T16:44:06;59.60;;;25.37;;
19727;SDS011;10015;52.530;13.390;2022-10-31T16:46:46;60.97;;;27.07;;
19727;SDS011;10015;52.530;13.390;2022-10-31T16:49:14;59.60;;;27.67;;
19727;SDS011;10015;52.530;13.390;2022-10-31T16:51:41;59.30;;;27.60;;
19727;SDS011;10015;52.530;13.390;2022-10-31T16:54:07;62.20;;;26.60;;
19727;SDS011;10015;52.530;13.390;2022-10-31T16:56:36;57.70;;;26.50;;
19727;SDS011;10015;52.530;13.390;2022-10-31T16:59:03;58.57;;;27.77;;
19727;SDS011;10015;52.530;13.390;2022-10-31T17:01:32;57.83;;;27.40;;
19727;SDS011;10015;52.530;13.390;2022-10-31T17:03:59;63.87;;;27.43;;
19727;SDS011;10015;52.530;13.390;2022-10-31T17:06:25;62.07;;;28.93;;
19727;SDS011;10015;52.530;13.390;2022-10-31T17:08:52;63.07;;;27.67;;
19727;SDS011;10015;52.530;13.390;2022-10-31T17:11:21;66.67;;;29.40;;
19727;SDS011;10015;52.530;13.390;2022-10-31T17:13:49;64.50;;;30.17;;
19727;SDS011;10015;52.530;13.390;2022-10-31T17:16:16;55.30;;;24.80;;
19727;SDS011;10015;52.530;13.390;2022-10-31T17:18:43;59.07;;;27.13;;
19727;SDS011;10015;52.530;13.390;2022-10-31T17:21:13;58.23;;;27.97;;
19727;SDS011;10015;52.530;13.390;2022-10-31T17:23:44;61.27;;;28.53;;
19727;SDS011;10015;52.530;13.390;2022-10-31T17:26:10;62.83;;;28.70;;
19727;SDS011;10015;52.530;13.390;2022-10-31T17:28:36;70.10;;;30.57;;
19727;SDS011;10015;52.530;13.390;2022-10-31T17:31:02;74.40;;;32.40;;
19727;SDS011;10015;52.530;13.390;2022-10-31T17:33:28;69.73;;;30.90;;
19727;SDS011;10015;52.530;13.390;2022-10-31T17:35:53;73.00;;;31.40;;
19727;SDS011;10015;52.530;13.390;2022-10-31T17:38:19;70.33;;;32.33;;
19727;SDS011;10015;52.530;13.390;2022-10-31T17:40:45;81.13;;;33.03;;
19727;SDS011;10015;52.530;13.390;2022-10-31T17:43:11;68.73;;;30.80;;
19727;SDS011;10015;52.530;13.390;2022-10-31T17:45:38;73.00;;;31.00;;
19727;SDS011;10015;52.530;13.390;2022-10-31T17:48:05;65.50;;;29.23;;
19727;SDS011;10015;52.530;13.390;2022-10-31T17:50:31;65.60;;;31.03;;
19727;SDS011;10015;52.530;13.390;2022-10-31T17:52:57;61.37;;;28.80;;
19727;SDS011;10015;52.530;13.390;2022-10-31T17:55:23;69.70;;;30.37;;
19727;SDS011;10015;52.530;13.390;2022-10-31T17:57:49;71.03;;;31.50;;
19727;SDS011;10015;52.530;13.390;2022-10-31T18:00:18;68.40;;;31.03;;
19727;SDS011;10015;52.530;13.390;2022-10-31T18:02:49;71.67;;;32.40;;
19727;SDS011;10015;52.530;13.390;2022-10-31T18:05:15;72.43;;;31.50;;
19727;SDS011;10015;52.530;13.390;2022-10-31T18:07:41;67.80;;;30.70;;
19727;SDS011;10015;52.530;13.390;2022-10-31T18:10:08;70.20;;;30.17;;
19727;SDS011;10015;52.530;13.390;2022-10-31T18:12:35;67.00;;;30.67;;
19727;SDS011;10015;52.530;13.390;2022-10-31T18:15:02;62.30;;;28.57;;
19727;SDS011;10015;52.530;13.390;2022-10-31T18:17:28;57.23;;;27.63;;
19727;SDS011;10015;52.530;13.390;2022-10-31T18:19:54;54.10;;;26.87;;
19727;SDS011;10015;52.530;13.390;2022-10-31T18:22:20;54.53;;;27.10;;
19727;SDS011;10015;52.530;13.390;2022-10-31T18:24:48;56.20;;;27.83;;
19727;SDS011;10015;52.530;13.390;2022-10-31T18:27:14;53.33;;;26.80;;
19727;SDS011;10015;52.530;13.390;2022-10-31T18:29:40;56.87;;;27.73;;
19727;SDS011;10015;52.530;13.390;2022-10-31T18:32:06;57.17;;;27.70;;
19727;SDS011;10015;52.530;13.390;2022-10-31T18:34:33;56.80;;;27.37;;
19727;SDS011;10015;52.530;13.390;2022-10-31T18:36:59;55.93;;;27.03;;
19727;SDS011;10015;52.530;13.390;2022-10-31T18:39:25;53.83;;;27.10;;
19727;SDS011;10015;52.530;13.390;2022-10-31T18:41:51;54.17;;;27.03;;
19727;SDS011;10015;52.530;13.390;2022-10-31T18:44:19;54.47;;;26.57;;
19727;SDS011;10015;52.530;13.390;2022-10-31T18:46:45;51.83;;;26.23;;
19727;SDS011;10015;52.530;13.390;2022-10-31T18:49:11;48.80;;;25.33;;
19727;SDS011;10015;52.530;13.390;2022-10-31T18:51:37;49.17;;;25.23;;
19727;SDS011;10015;52.530;13.390;2022-10-31T18:54:02;48.70;;;24.57;;
19727;SDS011;10015;52.530;13.390;2022-10-31T18:56:28;48.27;;;25.53;;
19727;SDS011;10015;52.530;13.390;2022-10-31T18:58:58;46.73;;;24.83;;
19727;SDS011;10015;52.530;13.390;2022-10-31T19:01:26;49.10;;;24.23;;
19727;SDS011;10015;52.530;13.390;2022-10-31T19:03:54;44.70;;;23.97;;
19727;SDS011;10015;52.530;13.390;2022-10-31T19:06:22;48.93;;;25.07;;
19727;SDS011;10015;52.530;13.390;2022-10-31T19:08:48;55.17;;;25.93;;
19727;SDS011;10015;52.530;13.390;2022-10-31T19:11:14;48.33;;;24.97;;
19727;SDS011;10015;52.530;13.390;2022-10-31T19:13:41;50.60;;;25.20;;
19727;SDS011;10015;52.530;13.390;2022-10-31T19:16:09;53.70;;;25.87;;
19727;SDS011;10015;52.530;13.390;2022-10-31T19:18:38;51.63;;;26.30;;
19727;SDS011;10015;52.530;13.390;2022-10-31T19:21:06;56.07;;;26.57;;
19727;SDS011;10015;52.530;13.390;2022-10-31T19:23:33;52.57;;;26.60;;
19727;SDS011;10015;52.530;13.390;2022-10-31T19:26:00;51.67;;;26.53;;
19727;SDS011;10015;52.530;13.390;2022-10-31T19:28:30;52.50;;;26.80;;
19727;SDS011;10015;52.530;13.390;2022-10-31T19:30:58;54.20;;;27.67;;
19727;SDS011;10015;52.530;13.390;2022-10-31T19:33:24;56.47;;;26.87;;
19727;SDS011;10015;52.530;13.390;2022-10-31T19:35:57;49.27;;;26.20;;
19727;SDS011;10015;52.530;13.390;2022-10-31T19:38:27;56.97;;;26.60;;
19727;SDS011;10015;52.530;13.390;2022-10-31T19:40:57;53.17;;;26.70;;
19727;SDS011;10015;52.530;13.390;2022-10-31T19:43:25;51.10;;;26.27;;
19727;SDS011;10015;52.530;13.390;2022-10-31T19:45:53;53.17;;;27.10;;
19727;SDS011;10015;52.530;13.390;2022-10-31T19:48:23;50.07;;;26.20;;
19727;SDS011;10015;52.530;13.390;2022-10-31T19:50:50;55.33;;;26.97;;
19727;SDS011;10015;52.530;13.390;2022-10-31T19:53:17;51.17;;;26.40;;
19727;SDS011;10015;52.530;13.390;2022-10-31T19:55:44;52.67;;;26.37;;
19727;SDS011;10015;52.530;13.390;2022-10-31T19:58:10;51.00;;;27.33;;
19727;SDS011;10015;52.530;13.390;2022-10-31T20:00:37;52.07;;;27.03;;
19727;SDS011;10015;52.530;13.390;2022-10-31T20:03:03;47.40;;;25.57;;
19727;SDS011;10015;52.530;13.390;2022-10-31T20:05:29;46.27;;;25.37;;
19727;SDS011;10015;52.530;13.390;2022-10-31T20:08:04;48.13;;;27.27;;
19727;SDS011;10015;52.530;13.390;2022-10-31T20:10:29;46.53;;;25.73;;
19727;SDS011;10015;52.530;13.390;2022-10-31T20:12:55;44.53;;;24.70;;
19727;SDS011;10015;52.530;13.390;2022-10-31T20:15:21;50.10;;;27.23;;
19727;SDS011;10015;52.530;13.390;2022-10-31T20:17:47;45.40;;;25.30;;
19727;SDS011;10015;52.530;13.390;2022-10-31T20:20:13;46.47;;;26.47;;
19727;SDS011;10015;52.530;13.390;2022-10-31T20:22:39;47.27;;;26.80;;
19727;SDS011;10015;52.530;13.390;2022-10-31T20:25:05;46.23;;;24.57;;
19727;SDS011;10015;52.530;13.390;2022-10-31T20:27:31;45.57;;;25.43;;
19727;SDS011;10015;52.530;13.390;2022-10-31T20:29:57;50.23;;;26.40;;
19727;SDS011;10015;52.530;13.390;2022-10-31T20:32:23;45.00;;;24.20;;
19727;SDS011;10015;52.530;13.390;2022-10-31T20:34:49;48.83;;;25.63;;
19727;SDS011;10015;52.530;13.390;2022-10-31T20:37:15;50.40;;;25.87;;
19727;SDS011;10015;52.530;13.390;2022-10-31T20:39:41;42.50;;;24.00;;
19727;SDS011;10015;52.530;13.390;2022-10-31T20:42:07;45.13;;;24.23;;
19727;SDS011;10015;52.530;13.390;2022-10-31T20:44:33;44.13;;;23.83;;
19727;SDS011;10015;52.530;13.390;2022-10-31T20:46:59;45.10;;;23.73;;
19727;SDS011;10015;52.530;13.390;2022-10-31T20:49:25;43.80;;;23.30;;
19727;SDS011;10015;52.530;13.390;2022-10-31T20:51:51;44.47;;;23.70;;
19727;SDS011;10015;52.530;13.390;2022-10-31T20:54:16;45.07;;;23.80;;
19727;SDS011;10015;52.530;13.390;2022-10-31T20:56:44;43.90;;;22.97;;
19727;SDS011;10015;52.530;13.390;2022-10-31T20:59:10;43.03;;;23.63;;
19727;SDS011;10015;52.530;13.390;2022-10-31T21:01:39;36.10;;;21.27;;
19727;SDS011;10015;52.530;13.390;2022-10-31T21:04:05;38.67;;;21.70;;
19727;SDS011;10015;52.530;13.390;2022-10-31T21:06:34;38.87;;;22.73;;
19727;SDS011;10015;52.530;13.390;2022-10-31T21:09:00;35.90;;;21.57;;
19727;SDS011;10015;52.530;13.390;2022-10-31T21:11:26;38.30;;;21.83;;
19727;SDS011;10015;52.530;13.390;2022-10-31T21:13:52;41.90;;;22.47;;
19727;SDS011;10015;52.530;13.390;2022-10-31T21:16:19;39.60;;;23.30;;
19727;SDS011;10015;52.530;13.390;2022-10-31T21:18:50;43.03;;;22.13;;
19727;SDS011;10015;52.530;13.390;2022-10-31T21:21:18;39.93;;;22.40;;
19727;SDS011;10015;52.530;13.390;2022-10-31T21:23:56;42.27;;;22.77;;
19727;SDS011;10015;52.530;13.390;2022-10-31T21:26:24;42.90;;;22.77;;
19727;SDS011;10015;52.530;13.390;2022-10-31T21:28:52;35.53;;;21.47;;
19727;SDS011;10015;52.530;13.390;2022-10-31T21:31:20;40.77;;;22.53;;
19727;SDS011;10015;52.530;13.390;2022-10-31T21:33:46;37.10;;;22.50;;
19727;SDS011;10015;52.530;13.390;2022-10-31T21:36:12;37.17;;;21.90;;
19727;SDS011;10015;52.530;13.390;2022-10-31T21:38:39;34.80;;;22.43;;
19727;SDS011;10015;52.530;13.390;2022-10-31T21:41:12;37.10;;;21.63;;
19727;SDS011;10015;52.530;13.390;2022-10-31T21:43:40;37.40;;;21.77;;
19727;SDS011;10015;52.530;13.390;2022-10-31T21:46:13;37.00;;;21.73;;
19727;SDS011;10015;52.530;13.390;2022-10-31T21:48:44;37.80;;;20.80;;
19727;SDS011;10015;52.530;13.390;2022-10-31T21:51:12;37.00;;;22.20;;
19727;SDS011;10015;52.530;13.390;2022-10-31T21:53:40;39.87;;;21.43;;
19727;SDS011;10015;52.530;13.390;2022-10-31T21:56:24;34.93;;;21.47;;